createdAt,value
2023-02-11T00:01:23.963Z,103393.00
2023-02-11T00:03:53.835Z,103389.41
2023-02-11T00:06:22.364Z,103388.44
2023-02-11T00:08:50.908Z,103382.34
2023-02-11T00:11:22.104Z,103387.53
2023-02-11T00:13:53.801Z,103389.22
2023-02-11T00:16:22.971Z,103377.53
2023-02-11T00:18:53.243Z,103375.09
2023-02-11T00:21:25.474Z,103378.69
2023-02-11T00:23:55.041Z,103372.47
2023-02-11T00:26:25.573Z,103365.41
2023-02-11T00:28:54.095Z,103366.34
2023-02-11T00:31:24.390Z,103354.13
2023-02-11T00:33:52.681Z,103349.69
2023-02-11T00:36:24.480Z,103354.13
2023-02-11T00:38:54.489Z,103360.22
2023-02-11T00:41:23.580Z,103353.28
2023-02-11T00:43:52.061Z,103358.56
2023-02-11T00:46:20.838Z,103363.81
2023-02-11T00:48:49.221Z,103366.34
2023-02-11T00:51:17.817Z,103369.81
2023-02-11T00:53:47.426Z,103368.97
2023-02-11T00:56:15.619Z,103370.78
2023-02-11T00:58:43.749Z,103377.84
2023-02-11T01:01:12.683Z,103373.41
2023-02-11T01:03:41.610Z,103380.25
2023-02-11T01:06:11.178Z,103376.69
2023-02-11T01:08:40.133Z,103375.44
2023-02-11T01:11:14.363Z,103373.75
2023-02-11T01:13:43.112Z,103368.50
2023-02-11T01:16:12.936Z,103368.50
2023-02-11T01:18:41.976Z,103362.47
2023-02-11T01:21:10.217Z,103365.94
2023-02-11T01:23:38.344Z,103367.66
2023-02-11T01:26:07.569Z,103367.66
2023-02-11T01:28:37.373Z,103371.31
2023-02-11T01:31:06.056Z,103361.81
2023-02-11T01:33:34.368Z,103357.59
2023-02-11T01:36:03.990Z,103353.28
2023-02-11T01:38:32.510Z,103348.75
2023-02-11T01:41:04.544Z,103348.84
2023-02-11T01:43:36.483Z,103337.66
2023-02-11T01:46:18.834Z,103338.72
2023-02-11T01:48:51.689Z,103333.47
2023-02-11T01:51:23.352Z,103329.94
2023-02-11T01:54:09.772Z,103330.91
2023-02-11T01:57:02.778Z,103330.38
2023-02-11T01:59:35.791Z,103327.91
2023-02-11T02:02:11.573Z,103325.28
2023-02-11T02:04:46.085Z,103325.81
2023-02-11T02:07:21.133Z,103339.94
2023-02-11T02:09:57.528Z,103325.88
2023-02-11T02:12:25.705Z,103336.53
2023-02-11T02:15:13.758Z,103329.41
2023-02-11T02:17:50.888Z,103315.56
2023-02-11T02:20:47.618Z,103309.66
2023-02-11T02:23:29.987Z,103315.75
2023-02-11T02:26:34.606Z,103313.97
2023-02-11T02:29:27.364Z,103318.41
2023-02-11T02:32:28.171Z,103320.72
2023-02-11T02:35:03.888Z,103324.19
2023-02-11T02:37:37.348Z,103326.84
2023-02-11T02:40:11.451Z,103322.34
2023-02-11T02:42:42.991Z,103326.66
2023-02-11T02:45:12.574Z,103323.25
2023-02-11T02:47:42.309Z,103321.56
2023-02-11T02:50:12.569Z,103318.22
2023-02-11T02:52:48.775Z,103317.44
2023-02-11T02:55:39.224Z,103305.16
2023-02-11T02:58:29.316Z,103303.25
2023-02-11T03:01:05.319Z,103295.25
2023-02-11T03:03:44.090Z,103292.53
2023-02-11T03:06:17.628Z,103290.72
2023-02-11T03:08:50.570Z,103296.63
2023-02-11T03:11:20.750Z,103280.94
2023-02-11T03:13:51.136Z,103285.25
2023-02-11T03:16:23.414Z,103286.19
2023-02-11T03:18:59.527Z,103290.50
2023-02-11T03:21:29.246Z,103282.59
2023-02-11T03:24:02.044Z,103284.31
2023-02-11T03:26:33.606Z,103288.63
2023-02-11T03:29:04.324Z,103284.22
2023-02-11T03:31:38.521Z,103288.41
2023-02-11T03:34:14.511Z,103287.69
2023-02-11T03:36:47.386Z,103274.50
2023-02-11T03:39:19.049Z,103281.47
2023-02-11T03:41:48.948Z,103279.06
2023-02-11T03:44:18.605Z,103273.78
2023-02-11T03:46:52.056Z,103279.91
2023-02-11T03:49:24.387Z,103277.34
2023-02-11T03:51:54.986Z,103279.06
2023-02-11T03:54:28.651Z,103277.25
2023-02-11T03:57:01.209Z,103277.34
2023-02-11T03:59:29.851Z,103281.59
2023-02-11T04:01:59.610Z,103277.25
2023-02-11T04:04:29.339Z,103287.88
2023-02-11T04:06:57.755Z,103288.81
2023-02-11T04:09:25.983Z,103290.50
2023-02-11T04:11:54.163Z,103300.44
2023-02-11T04:14:22.712Z,103305.59
2023-02-11T04:16:50.959Z,103300.50
2023-02-11T04:19:19.110Z,103307.44
2023-02-11T04:21:48.892Z,103299.47
2023-02-11T04:24:17.108Z,103302.19
2023-02-11T04:26:45.428Z,103297.03
2023-02-11T04:29:13.486Z,103300.31
2023-02-11T04:31:41.970Z,103301.16
2023-02-11T04:34:12.032Z,103302.00
2023-02-11T04:36:40.426Z,103298.72
2023-02-11T04:39:09.973Z,103301.88
2023-02-11T04:41:38.217Z,103298.53
2023-02-11T04:44:06.842Z,103297.69
2023-02-11T04:46:34.967Z,103299.16
2023-02-11T04:49:03.194Z,103300.66
2023-02-11T04:51:31.846Z,103302.34
2023-02-11T04:54:00.139Z,103311.19
2023-02-11T04:56:29.765Z,103313.59
2023-02-11T04:58:58.088Z,103304.88
2023-02-11T05:01:26.271Z,103308.25
2023-02-11T05:03:54.708Z,103308.16
2023-02-11T05:06:22.934Z,103302.78
2023-02-11T05:08:51.217Z,103307.13
2023-02-11T05:11:22.118Z,103309.66
2023-02-11T05:13:51.986Z,103314.06
2023-02-11T05:16:20.778Z,103311.53
2023-02-11T05:18:52.433Z,103320.19
2023-02-11T05:21:21.193Z,103314.91
2023-02-11T05:23:49.920Z,103315.03
2023-02-11T05:26:18.645Z,103308.69
2023-02-11T05:28:47.306Z,103313.97
2023-02-11T05:31:19.403Z,103313.41
2023-02-11T05:33:47.717Z,103308.16
2023-02-11T05:36:16.909Z,103316.91
2023-02-11T05:38:45.218Z,103321.88
2023-02-11T05:41:13.437Z,103324.50
2023-02-11T05:43:41.551Z,103324.50
2023-02-11T05:46:09.718Z,103317.44
2023-02-11T05:48:39.511Z,103320.19
2023-02-11T05:51:07.711Z,103333.47
2023-02-11T05:53:36.177Z,103325.44
2023-02-11T05:56:04.575Z,103321.88
2023-02-11T05:58:33.854Z,103325.44
2023-02-11T06:01:02.010Z,103323.53
2023-02-11T06:03:30.273Z,103324.38
2023-02-11T06:05:59.887Z,103332.28
2023-02-11T06:08:28.004Z,103335.03
2023-02-11T06:10:56.096Z,103331.44
2023-02-11T06:13:24.194Z,103333.47
2023-02-11T06:15:58.581Z,103328.09
2023-02-11T06:18:27.192Z,103326.28
2023-02-11T06:20:55.476Z,103322.06
2023-02-11T06:23:30.248Z,103324.69
2023-02-11T06:26:03.184Z,103317.75
2023-02-11T06:28:32.518Z,103327.44
2023-02-11T06:31:06.701Z,103327.53
2023-02-11T06:33:35.531Z,103334.59
2023-02-11T06:36:03.918Z,103333.66
2023-02-11T06:38:33.542Z,103333.75
2023-02-11T06:41:01.783Z,103330.25
2023-02-11T06:43:30.116Z,103333.66
2023-02-11T06:45:58.294Z,103328.28
2023-02-11T06:48:26.469Z,103332.59
2023-02-11T06:50:54.737Z,103335.97
2023-02-11T06:53:22.887Z,103339.66
2023-02-11T06:55:52.658Z,103337.84
2023-02-11T06:58:20.858Z,103338.09
2023-02-11T07:00:49.036Z,103332.81
2023-02-11T07:03:17.323Z,103329.22
2023-02-11T07:05:45.487Z,103330.91
2023-02-11T07:08:13.657Z,103337.13
2023-02-11T07:10:41.930Z,103337.25
2023-02-11T07:13:11.419Z,103346.06
2023-02-11T07:15:39.613Z,103345.22
2023-02-11T07:18:07.782Z,103335.53
2023-02-11T07:20:35.969Z,103341.75
2023-02-11T07:23:04.134Z,103337.25
2023-02-11T07:25:32.353Z,103340.72
2023-02-11T07:28:00.544Z,103345.22
2023-02-11T07:30:30.095Z,103347.84
2023-02-11T07:32:58.590Z,103347.78
2023-02-11T07:35:26.876Z,103352.19
2023-02-11T07:37:55.060Z,103355.56
2023-02-11T07:40:23.273Z,103354.72
2023-02-11T07:42:51.466Z,103368.63
2023-02-11T07:45:19.845Z,103362.44
2023-02-11T07:47:49.426Z,103371.06
2023-02-11T07:50:18.518Z,103367.50
2023-02-11T07:52:46.699Z,103372.97
2023-02-11T07:55:14.861Z,103378.88
2023-02-11T07:57:43.095Z,103379.72
2023-02-11T08:00:12.816Z,103382.34
2023-02-11T08:02:41.007Z,103386.69
2023-02-11T08:05:11.301Z,103382.16
2023-02-11T08:07:39.462Z,103381.31
2023-02-11T08:10:08.062Z,103369.81
2023-02-11T08:12:36.235Z,103384.69
2023-02-11T08:15:04.490Z,103378.38
2023-02-11T08:17:32.681Z,103387.13
2023-02-11T08:20:00.853Z,103393.13
2023-02-11T08:22:32.759Z,103397.56
2023-02-11T08:25:00.996Z,103400.94
2023-02-11T08:27:30.325Z,103396.41
2023-02-11T08:30:00.120Z,103402.53
2023-02-11T08:32:28.274Z,103395.38
2023-02-11T08:34:56.555Z,103396.13
2023-02-11T08:37:24.780Z,103402.34
2023-02-11T08:39:54.447Z,103414.47
2023-02-11T08:42:22.722Z,103424.00
2023-02-11T08:44:50.992Z,103423.03
2023-02-11T08:47:19.070Z,103414.19
2023-02-11T08:49:47.506Z,103420.94
2023-02-11T08:52:15.845Z,103423.56
2023-02-11T08:54:44.251Z,103431.28
2023-02-11T08:57:13.952Z,103445.19
2023-02-11T08:59:42.067Z,103448.72
2023-02-11T09:02:13.173Z,103452.06
2023-02-11T09:04:44.171Z,103451.88
2023-02-11T09:07:12.696Z,103442.25
2023-02-11T09:09:40.861Z,103450.81
2023-02-11T09:12:09.163Z,103446.50
2023-02-11T09:14:38.808Z,103460.41
2023-02-11T09:17:06.952Z,103464.97
2023-02-11T09:19:35.211Z,103471.91
2023-02-11T09:22:06.472Z,103474.56
2023-02-11T09:24:34.687Z,103473.59
2023-02-11T09:27:02.863Z,103488.38
2023-02-11T09:29:31.042Z,103479.53
2023-02-11T09:32:00.820Z,103469.63
2023-02-11T09:34:29.044Z,103476.59
2023-02-11T09:36:57.117Z,103483.53
2023-02-11T09:39:26.853Z,103472.81
2023-02-11T09:42:30.495Z,103481.44
2023-02-11T09:45:00.799Z,103484.84
2023-02-11T09:47:34.623Z,103487.47
2023-02-11T09:50:05.739Z,103482.84
2023-02-11T09:52:40.427Z,103498.69
2023-02-11T09:55:19.884Z,103505.53
2023-02-11T09:57:48.338Z,103504.56
2023-02-11T10:00:23.189Z,103510.63
2023-02-11T10:03:09.061Z,103511.34
2023-02-11T10:05:53.032Z,103517.28
2023-02-11T10:08:31.888Z,103519.06
2023-02-11T10:11:05.730Z,103518.00
2023-02-11T10:13:55.515Z,103518.75
2023-02-11T10:16:45.742Z,103502.72
2023-02-11T10:19:45.319Z,103508.84
2023-02-11T10:22:20.608Z,103507.50
2023-02-11T10:24:54.846Z,103505.81
2023-02-11T10:27:29.214Z,103524.06
2023-02-11T10:30:03.402Z,103508.88
2023-02-11T10:32:39.176Z,103521.13
2023-02-11T10:35:18.124Z,103514.97
2023-02-11T10:37:46.273Z,103515.63
2023-02-11T10:40:16.786Z,103523.34
2023-02-11T10:42:49.469Z,103526.72
2023-02-11T10:45:23.948Z,103530.97
2023-02-11T10:47:52.106Z,103525.38
2023-02-11T10:50:25.101Z,103534.84
2023-02-11T10:52:53.456Z,103532.34
2023-02-11T10:55:25.678Z,103536.34
2023-02-11T10:58:00.269Z,103537.84
2023-02-11T11:00:40.019Z,103541.13
2023-02-11T11:03:20.057Z,103530.56
2023-02-11T11:05:52.481Z,103529.28
2023-02-11T11:08:21.285Z,103523.81
2023-02-11T11:11:03.829Z,103530.78
2023-02-11T11:13:33.876Z,103536.78
2023-02-11T11:16:19.749Z,103539.34
2023-02-11T11:18:49.618Z,103539.22
2023-02-11T11:21:23.016Z,103538.06
2023-02-11T11:23:55.417Z,103541.75
2023-02-11T11:26:25.413Z,103545.22
2023-02-11T11:29:02.821Z,103545.16
2023-02-11T11:31:35.949Z,103549.34
2023-02-11T11:34:24.687Z,103540.41
2023-02-11T11:36:55.031Z,103538.28
2023-02-11T11:39:26.335Z,103542.16
2023-02-11T11:41:58.546Z,103552.41
2023-02-11T11:44:30.524Z,103550.63
2023-02-11T11:47:19.825Z,103545.97
2023-02-11T11:49:54.201Z,103549.91
2023-02-11T11:52:36.843Z,103547.03
2023-02-11T11:55:13.262Z,103548.53
2023-02-11T11:57:41.862Z,103552.88
2023-02-11T12:00:20.725Z,103544.50
2023-02-11T12:03:21.672Z,103542.38
2023-02-11T12:06:03.739Z,103540.47
2023-02-11T12:08:43.735Z,103532.13
2023-02-11T12:11:21.643Z,103532.84
2023-02-11T12:14:02.207Z,103535.16
2023-02-11T12:16:41.723Z,103538.44
2023-02-11T12:19:25.026Z,103534.63
2023-02-11T12:22:02.264Z,103526.56
2023-02-11T12:24:43.232Z,103528.88
2023-02-11T12:27:18.682Z,103529.50
2023-02-11T12:30:00.240Z,103539.34
2023-02-11T12:32:38.594Z,103538.75
2023-02-11T12:35:27.460Z,103536.44
2023-02-11T12:38:33.075Z,103542.75
2023-02-11T12:41:42.985Z,103546.13
2023-02-11T12:44:17.821Z,103548.03
2023-02-11T12:46:52.248Z,103544.56
2023-02-11T12:49:38.802Z,103549.97
2023-02-11T12:52:22.755Z,103553.53
2023-02-11T12:54:58.812Z,103551.22
2023-02-11T12:57:30.436Z,103545.72
2023-02-11T13:00:05.853Z,103554.00
2023-02-11T13:02:43.630Z,103543.53
2023-02-11T13:05:23.433Z,103537.50
2023-02-11T13:07:54.160Z,103539.09
2023-02-11T13:10:31.292Z,103538.97
2023-02-11T13:13:18.850Z,103535.59
2023-02-11T13:15:51.782Z,103542.78
2023-02-11T13:18:38.035Z,103549.16
2023-02-11T13:21:23.112Z,103555.47
2023-02-11T13:24:00.839Z,103542.50
2023-02-11T13:26:36.323Z,103559.53
2023-02-11T13:29:19.920Z,103554.66
2023-02-11T13:31:55.631Z,103561.00
2023-02-11T13:34:48.259Z,103567.78
2023-02-11T13:37:23.567Z,103555.59
2023-02-11T13:39:59.073Z,103553.72
2023-02-11T13:42:27.921Z,103555.53
2023-02-11T13:44:58.078Z,103557.22
2023-02-11T13:47:32.532Z,103546.63
2023-02-11T13:50:03.368Z,103548.44
2023-02-11T13:52:34.587Z,103553.59
2023-02-11T13:55:10.788Z,103543.03
2023-02-11T13:57:40.847Z,103543.03
2023-02-11T14:00:41.454Z,103537.75
2023-02-11T14:03:55.243Z,103536.34
2023-02-11T14:06:43.675Z,103526.31
2023-02-11T14:09:37.068Z,103520.59
2023-02-11T14:12:32.827Z,103515.94
2023-02-11T14:15:18.813Z,103521.72
2023-02-11T14:17:47.107Z,103512.72
2023-02-11T14:20:39.891Z,103504.56
2023-02-11T14:23:08.938Z,103503.41
2023-02-11T14:25:38.915Z,103510.38
2023-02-11T14:28:17.882Z,103501.72
2023-02-11T14:30:58.526Z,103498.34
2023-02-11T14:34:01.513Z,103501.47
2023-02-11T14:37:13.322Z,103489.56
2023-02-11T14:39:57.349Z,103491.25
2023-02-11T14:42:28.262Z,103499.16
2023-02-11T14:45:00.820Z,103491.34
2023-02-11T14:47:51.484Z,103486.28
2023-02-11T14:50:26.005Z,103494.22
2023-02-11T14:52:57.040Z,103494.34
2023-02-11T14:55:33.252Z,103493.38
2023-02-11T14:58:09.929Z,103491.81
2023-02-11T15:00:38.365Z,103497.09
2023-02-11T15:03:06.466Z,103498.03
2023-02-11T15:05:34.725Z,103500.47
2023-02-11T15:08:09.075Z,103509.34
2023-02-11T15:10:44.380Z,103499.84
2023-02-11T15:13:20.355Z,103501.13
2023-02-11T15:15:52.093Z,103500.16
2023-02-11T15:18:24.410Z,103500.75
2023-02-11T15:20:53.359Z,103503.47
2023-02-11T15:23:26.370Z,103500.81
2023-02-11T15:25:56.297Z,103498.44
2023-02-11T15:28:29.040Z,103495.78
2023-02-11T15:31:02.631Z,103497.59
2023-02-11T15:33:32.341Z,103502.13
2023-02-11T15:36:02.903Z,103498.63
2023-02-11T15:38:33.222Z,103498.84
2023-02-11T15:41:02.645Z,103502.31
2023-02-11T15:43:44.678Z,103504.38
2023-02-11T15:46:16.243Z,103503.41
2023-02-11T15:48:45.394Z,103501.94
2023-02-11T15:51:22.339Z,103501.81
2023-02-11T15:53:57.067Z,103511.53
2023-02-11T15:56:29.801Z,103508.16
2023-02-11T15:59:00.981Z,103512.94
2023-02-11T16:01:33.619Z,103503.28
2023-02-11T16:04:03.988Z,103506.16
2023-02-11T16:06:39.827Z,103511.53
2023-02-11T16:09:26.385Z,103506.59
2023-02-11T16:12:00.196Z,103497.78
2023-02-11T16:14:34.792Z,103499.59
2023-02-11T16:17:06.600Z,103498.13
2023-02-11T16:19:36.832Z,103493.78
2023-02-11T16:22:11.917Z,103494.75
2023-02-11T16:24:41.868Z,103500.16
2023-02-11T16:27:22.785Z,103507.31
2023-02-11T16:29:52.302Z,103502.88
2023-02-11T16:32:22.473Z,103502.03
2023-02-11T16:34:51.877Z,103504.78
2023-02-11T16:37:20.071Z,103501.31
2023-02-11T16:39:55.343Z,103508.38
2023-02-11T16:42:23.496Z,103501.63
2023-02-11T16:44:51.970Z,103502.59
2023-02-11T16:47:24.451Z,103503.50
2023-02-11T16:49:53.485Z,103506.25
2023-02-11T16:52:22.870Z,103506.50
2023-02-11T16:54:52.627Z,103509.13
2023-02-11T16:57:23.021Z,103513.03
2023-02-11T16:59:51.678Z,103518.41
2023-02-11T17:02:24.285Z,103512.28
2023-02-11T17:04:54.087Z,103512.41
2023-02-11T17:07:22.498Z,103519.69
2023-02-11T17:09:53.006Z,103511.97
2023-02-11T17:12:21.344Z,103520.84
2023-02-11T17:14:49.403Z,103519.25
2023-02-11T17:17:17.644Z,103527.38
2023-02-11T17:19:47.875Z,103533.72
2023-02-11T17:22:16.188Z,103532.03
2023-02-11T17:24:44.355Z,103535.63
2023-02-11T17:27:15.320Z,103543.41
2023-02-11T17:29:43.523Z,103529.59
2023-02-11T17:32:12.017Z,103537.50
2023-02-11T17:34:40.314Z,103534.13
2023-02-11T17:37:09.409Z,103539.41
2023-02-11T17:39:37.791Z,103536.88
2023-02-11T17:42:07.457Z,103536.78
2023-02-11T17:44:37.372Z,103535.09
2023-02-11T17:47:05.639Z,103523.78
2023-02-11T17:49:33.785Z,103540.97
2023-02-11T17:52:02.067Z,103544.56
2023-02-11T17:54:30.384Z,103543.81
2023-02-11T17:57:01.610Z,103538.66
2023-02-11T17:59:35.408Z,103551.84
2023-02-11T18:02:05.991Z,103555.44
2023-02-11T18:04:34.449Z,103559.00
2023-02-11T18:07:02.810Z,103559.22
2023-02-11T18:09:31.009Z,103563.72
2023-02-11T18:11:59.235Z,103566.06
2023-02-11T18:14:27.339Z,103565.56
2023-02-11T18:16:55.548Z,103572.72
2023-02-11T18:19:25.546Z,103566.59
2023-02-11T18:21:53.820Z,103566.41
2023-02-11T18:24:22.112Z,103572.66
2023-02-11T18:26:50.283Z,103569.53
2023-02-11T18:29:19.108Z,103564.38
2023-02-11T18:31:47.429Z,103568.69
2023-02-11T18:34:15.988Z,103575.66
2023-02-11T18:36:45.563Z,103576.63
2023-02-11T18:39:14.093Z,103571.44
2023-02-11T18:41:43.641Z,103572.41
2023-02-11T18:44:14.252Z,103580.09
2023-02-11T18:46:42.474Z,103573.25
2023-02-11T18:49:13.246Z,103580.94
2023-02-11T18:51:41.446Z,103580.09
2023-02-11T18:54:13.677Z,103591.41
2023-02-11T18:56:41.926Z,103587.09
2023-02-11T18:59:10.150Z,103593.28
2023-02-11T19:01:40.506Z,103597.66
2023-02-11T19:04:08.809Z,103591.41
2023-02-11T19:06:38.813Z,103592.75
2023-02-11T19:09:09.951Z,103602.56
2023-02-11T19:11:50.534Z,103601.19
2023-02-11T19:14:21.854Z,103607.50
2023-02-11T19:16:51.718Z,103609.47
2023-02-11T19:19:24.464Z,103601.38
2023-02-11T19:21:52.884Z,103595.16
2023-02-11T19:24:22.116Z,103606.66
2023-02-11T19:26:54.188Z,103607.59
2023-02-11T19:29:22.512Z,103605.16
2023-02-11T19:31:51.120Z,103598.09
2023-02-11T19:34:21.104Z,103600.72
2023-02-11T19:36:49.552Z,103591.00
2023-02-11T19:39:18.567Z,103597.25
2023-02-11T19:41:46.693Z,103583.03
2023-02-11T19:44:16.724Z,103576.91
2023-02-11T19:46:46.171Z,103577.81
2023-02-11T19:49:23.129Z,103579.53
2023-02-11T19:51:51.622Z,103590.94
2023-02-11T19:54:20.332Z,103577.75
2023-02-11T19:56:48.884Z,103584.81
2023-02-11T19:59:18.999Z,103575.28
2023-02-11T20:01:49.145Z,103571.63
2023-02-11T20:04:17.466Z,103582.19
2023-02-11T20:06:48.114Z,103574.34
2023-02-11T20:09:16.812Z,103572.78
2023-02-11T20:11:45.012Z,103580.69
2023-02-11T20:14:14.881Z,103571.94
2023-02-11T20:16:48.990Z,103572.78
2023-02-11T20:19:20.361Z,103577.94
2023-02-11T20:21:52.407Z,103575.41
2023-02-11T20:24:21.402Z,103570.13
2023-02-11T20:26:51.708Z,103569.28
2023-02-11T20:29:20.687Z,103568.41
2023-02-11T20:31:51.792Z,103567.56
2023-02-11T20:34:21.307Z,103574.63
2023-02-11T20:36:52.257Z,103574.63
2023-02-11T20:39:22.377Z,103580.75
2023-02-11T20:41:51.580Z,103584.25
2023-02-11T20:44:21.818Z,103586.03
2023-02-11T20:46:54.342Z,103586.03
2023-02-11T20:49:25.362Z,103594.06
2023-02-11T20:51:54.029Z,103587.16
2023-02-11T20:54:23.495Z,103592.44
2023-02-11T20:56:53.787Z,103591.59
2023-02-11T20:59:22.779Z,103588.13
2023-02-11T21:01:55.576Z,103592.66
2023-02-11T21:04:26.219Z,103591.81
2023-02-11T21:06:57.042Z,103598.88
2023-02-11T21:09:27.928Z,103594.53
2023-02-11T21:11:57.019Z,103591.91
2023-02-11T21:14:26.186Z,103601.72
2023-02-11T21:16:55.959Z,103599.91
2023-02-11T21:19:24.163Z,103613.22
2023-02-11T21:21:52.573Z,103610.47
2023-02-11T21:24:20.785Z,103606.16
2023-02-11T21:26:48.934Z,103613.09
2023-02-11T21:29:17.445Z,103608.66
2023-02-11T21:31:45.645Z,103610.56
2023-02-11T21:34:16.346Z,103616.69
2023-02-11T21:36:45.371Z,103616.69
2023-02-11T21:39:14.069Z,103605.19
2023-02-11T21:41:42.268Z,103617.44
2023-02-11T21:44:10.416Z,103615.63
2023-02-11T21:46:38.785Z,103615.56
2023-02-11T21:49:07.040Z,103615.56
2023-02-11T21:51:36.895Z,103619.03
2023-02-11T21:54:05.760Z,103613.66
2023-02-11T21:56:35.628Z,103622.41
2023-02-11T21:59:04.622Z,103616.28
2023-02-11T22:01:35.447Z,103621.56
2023-02-11T22:04:03.938Z,103617.78
2023-02-11T22:06:35.300Z,103615.03
2023-02-11T22:09:07.436Z,103613.34
2023-02-11T22:11:35.891Z,103621.38
2023-02-11T22:14:04.741Z,103615.16
2023-02-11T22:16:33.280Z,103617.91
2023-02-11T22:19:02.473Z,103624.00
2023-02-11T22:21:30.949Z,103624.97
2023-02-11T22:23:59.279Z,103622.34
2023-02-11T22:26:29.946Z,103616.41
2023-02-11T22:28:58.269Z,103618.94
2023-02-11T22:31:29.706Z,103631.56
2023-02-11T22:33:58.238Z,103621.31
2023-02-11T22:36:28.547Z,103616.22
2023-02-11T22:38:57.478Z,103610.94
2023-02-11T22:41:25.884Z,103614.47
2023-02-11T22:43:55.464Z,103610.88
2023-02-11T22:46:23.791Z,103609.19
2023-02-11T22:48:52.472Z,103617.94
2023-02-11T22:51:22.977Z,103618.78
2023-02-11T22:53:52.751Z,103611.72
2023-02-11T22:56:21.349Z,103616.97
2023-02-11T22:58:50.300Z,103622.16
2023-02-11T23:01:20.372Z,103619.44
2023-02-11T23:03:48.872Z,103618.56
2023-02-11T23:06:17.699Z,103620.28
2023-02-11T23:08:46.316Z,103630.81
2023-02-11T23:11:16.951Z,103618.38
2023-02-11T23:13:46.958Z,103616.59
2023-02-11T23:16:17.835Z,103615.75
2023-02-11T23:18:50.249Z,103619.88
2023-02-11T23:21:21.641Z,103619.88
2023-02-11T23:23:50.623Z,103617.97
2023-02-11T23:26:19.725Z,103624.31
2023-02-11T23:28:48.231Z,103624.19
2023-02-11T23:31:19.154Z,103619.88
2023-02-11T23:33:49.876Z,103618.28
2023-02-11T23:36:19.618Z,103618.19
2023-02-11T23:38:47.855Z,103623.66
2023-02-11T23:41:17.118Z,103616.47
2023-02-11T23:43:45.636Z,103619.03
2023-02-11T23:46:13.828Z,103612.91
2023-02-11T23:48:42.014Z,103619.22
2023-02-11T23:51:12.118Z,103614.78
2023-02-11T23:53:41.186Z,103617.72
2023-02-11T23:56:11.046Z,103616.03
2023-02-11T23:58:39.268Z,103612.75
